Time;durP1;ratioP1;P1;durP2;ratioP2;P2;SDS_P1;SDS_P2;PMS_P1;PMS_P2;Temp;Humidity;BMP_temperature;BMP_pressure;BME280_temperature;BME280_humidity;BME280_pressure;Samples;Min_cycle;Max_cycle;Signal;HPM_P1;HPM_P2
2022/04/05 00:01:06;;;;;;;17.50;10.43;;;22.70;89.20;;;;;;1929850;74;21543;-78
2022/04/05 00:03:37;;;;;;;17.45;10.18;;;22.70;89.00;;;;;;1922456;74;21199;-79
2022/04/05 00:06:08;;;;;;;19.05;11.35;;;22.70;88.40;;;;;;1892412;75;21709;-80
2022/04/05 00:08:38;;;;;;;16.62;9.63;;;22.80;88.40;;;;;;1898738;75;21054;-81
2022/04/05 00:11:15;;;;;;;19.35;10.03;;;22.90;88.30;;;;;;1906172;75;21161;-80
2022/04/05 00:13:54;;;;;;;14.93;9.58;;;22.90;88.20;;;;;;1899086;75;21093;-79
2022/04/05 00:16:22;;;;;;;14.28;9.83;;;22.90;88.00;;;;;;1910606;75;21868;-80
2022/04/05 00:18:58;;;;;;;13.48;9.65;;;23.00;87.60;;;;;;1850129;74;21571;-79
2022/04/05 00:21:28;;;;;;;15.72;9.60;;;23.00;87.70;;;;;;1910660;75;21227;-79
2022/04/05 00:23:59;;;;;;;14.87;10.20;;;23.00;87.60;;;;;;1888345;75;21552;-79
2022/04/05 00:26:31;;;;;;;14.15;9.90;;;23.10;87.30;;;;;;1906761;75;21085;-78
2022/04/05 00:29:01;;;;;;;13.50;9.90;;;23.10;86.70;;;;;;1894454;75;21097;-78
2022/04/05 00:31:32;;;;;;;11.90;8.38;;;23.10;86.50;;;;;;1920589;74;21206;-79
2022/04/05 00:34:03;;;;;;;13.05;8.15;;;23.10;86.10;;;;;;1890005;75;21106;-79
2022/04/05 00:36:41;;;;;;;11.80;8.18;;;23.20;85.90;;;;;;1881792;75;21210;-80
2022/04/05 00:39:22;;;;;;;11.80;7.92;;;23.20;86.00;;;;;;1894629;75;21102;-82
2022/04/05 00:41:58;;;;;;;10.48;7.42;;;23.30;86.10;;;;;;1834730;77;21158;-79
2022/04/05 00:44:28;;;;;;;12.37;7.08;;;23.30;85.80;;;;;;1777657;80;21127;-80
2022/04/05 00:47:08;;;;;;;12.07;8.50;;;23.40;85.30;;;;;;1813884;77;21645;-79
2022/04/05 00:49:40;;;;;;;13.93;7.30;;;23.30;85.00;;;;;;1763548;80;21186;-79
2022/04/05 00:52:17;;;;;;;12.10;6.60;;;23.40;85.10;;;;;;1829411;77;21365;-80
2022/04/05 00:54:50;;;;;;;12.88;8.20;;;23.40;85.10;;;;;;1786197;80;21586;-77
2022/04/05 00:57:23;;;;;;;11.85;6.85;;;23.40;85.10;;;;;;1771626;81;21681;-79
2022/04/05 00:59:57;;;;;;;10.28;7.22;;;23.50;84.40;;;;;;1836933;77;21316;-80
2022/04/05 01:02:30;;;;;;;10.23;6.67;;;23.50;84.60;;;;;;1837892;78;21195;-77
2022/04/05 01:05:02;;;;;;;13.35;6.90;;;23.60;84.50;;;;;;1800810;78;21586;-80
2022/04/05 01:07:35;;;;;;;7.60;5.72;;;23.60;85.20;;;;;;1844217;77;21095;-80
2022/04/05 01:10:07;;;;;;;10.08;5.87;;;23.70;83.80;;;;;;1787335;80;21088;-80
2022/04/05 01:12:43;;;;;;;8.43;5.78;;;23.80;83.40;;;;;;1841521;78;21580;-80
2022/04/05 01:15:15;;;;;;;8.80;6.87;;;23.80;83.40;;;;;;1838985;77;21188;-80
2022/04/05 01:17:46;;;;;;;9.23;6.45;;;23.80;83.00;;;;;;1843913;78;21305;-80
2022/04/05 01:20:16;;;;;;;9.13;6.53;;;23.90;83.10;;;;;;1860141;75;21164;-79
2022/04/05 01:22:50;;;;;;;9.68;6.25;;;23.90;83.10;;;;;;1866597;76;21545;-80
2022/04/05 01:25:21;;;;;;;8.75;6.10;;;23.90;82.40;;;;;;1864310;75;21534;-80
2022/04/05 01:27:53;;;;;;;8.28;5.70;;;23.90;82.00;;;;;;1790940;80;21150;-80
2022/04/05 01:30:24;;;;;;;8.75;5.62;;;24.00;82.20;;;;;;1872375;76;21125;-79
2022/04/05 01:32:59;;;;;;;8.65;5.90;;;24.00;82.20;;;;;;1871767;76;21564;-80
2022/04/05 01:35:27;;;;;;;8.45;5.53;;;24.00;81.60;;;;;;1818054;79;21110;-81
2022/04/05 01:38:06;;;;;;;7.85;4.72;;;24.10;81.50;;;;;;1870455;75;21535;-80
2022/04/05 01:40:40;;;;;;;11.53;5.33;;;24.10;81.30;;;;;;1812783;77;21078;-79
2022/04/05 01:43:13;;;;;;;8.50;5.47;;;24.20;81.30;;;;;;1879828;75;21072;-79
2022/04/05 01:45:46;;;;;;;8.20;4.37;;;24.20;81.20;;;;;;1861643;76;21135;-78
2022/04/05 01:48:18;;;;;;;10.05;4.58;;;24.30;80.20;;;;;;1862491;76;21097;-79
2022/04/05 01:50:49;;;;;;;9.33;5.50;;;24.40;80.00;;;;;;1837000;76;21145;-79
2022/04/05 01:53:25;;;;;;;6.20;4.37;;;24.50;79.80;;;;;;1790363;80;21324;-81
2022/04/05 01:56:01;;;;;;;6.45;4.60;;;24.60;79.70;;;;;;1864280;76;21083;-80
2022/04/05 01:58:32;;;;;;;8.25;4.72;;;24.70;79.10;;;;;;1846459;75;21657;-79
2022/04/05 02:01:06;;;;;;;7.10;4.47;;;24.70;78.80;;;;;;1888796;75;21516;-79
2022/04/05 02:03:38;;;;;;;9.48;5.35;;;24.80;78.40;;;;;;1893557;76;21078;-79
2022/04/05 02:06:10;;;;;;;9.35;4.80;;;24.90;78.60;;;;;;1879665;76;21085;-78
2022/04/05 02:08:43;;;;;;;7.67;4.20;;;25.00;78.10;;;;;;1814605;78;21227;-78
2022/04/05 02:11:13;;;;;;;8.75;4.72;;;25.00;77.60;;;;;;1813251;77;21206;-78
2022/04/05 02:13:44;;;;;;;7.20;4.35;;;25.20;77.60;;;;;;1876898;76;21694;-78
2022/04/05 02:16:15;;;;;;;7.55;4.05;;;25.20;76.50;;;;;;1884696;74;21185;-78
2022/04/05 02:18:49;;;;;;;5.72;3.62;;;25.30;76.70;;;;;;1818969;77;21769;-79
2022/04/05 02:21:22;;;;;;;8.65;4.33;;;25.40;76.30;;;;;;1879276;76;21113;-80
2022/04/05 02:23:53;;;;;;;6.90;3.85;;;25.50;76.00;;;;;;1869058;76;21074;-79
2022/04/05 02:26:27;;;;;;;5.53;3.67;;;25.50;75.70;;;;;;1877242;76;21619;-78
2022/04/05 02:28:58;;;;;;;6.15;4.17;;;25.60;75.30;;;;;;1883141;76;21148;-80
2022/04/05 02:31:30;;;;;;;7.87;4.22;;;25.70;75.40;;;;;;1882984;76;21135;-77
2022/04/05 02:34:01;;;;;;;7.70;5.10;;;25.80;75.50;;;;;;1893473;76;21510;-79
2022/04/05 02:36:34;;;;;;;7.03;4.10;;;25.90;75.60;;;;;;1892914;76;21478;-80
2022/04/05 02:39:06;;;;;;;6.78;4.33;;;25.90;75.30;;;;;;1872829;76;21125;-80
2022/04/05 02:41:37;;;;;;;5.42;4.05;;;26.00;75.20;;;;;;1888835;76;21098;-79
2022/04/05 02:44:08;;;;;;;8.33;4.15;;;26.10;76.00;;;;;;1877747;76;22096;-80
2022/04/05 02:46:39;;;;;;;6.35;4.20;;;26.20;75.40;;;;;;1866474;76;21620;-80
2022/04/05 02:49:13;;;;;;;6.65;4.53;;;26.30;75.40;;;;;;1874503;76;21666;-80
2022/04/05 02:51:42;;;;;;;8.83;4.72;;;26.40;74.60;;;;;;1890820;76;21557;-80
2022/04/05 02:54:13;;;;;;;7.60;5.20;;;26.50;75.80;;;;;;1893321;76;21199;-80
2022/04/05 02:56:44;;;;;;;5.40;4.00;;;26.60;74.00;;;;;;1875585;76;21093;-79
2022/04/05 02:59:15;;;;;;;7.72;4.60;;;26.70;73.90;;;;;;1875176;76;21133;-80
2022/04/05 03:01:46;;;;;;;8.13;4.55;;;26.80;73.80;;;;;;1886991;74;21616;-81
2022/04/05 03:04:18;;;;;;;6.92;4.45;;;26.80;73.60;;;;;;1885977;75;21160;-79
2022/04/05 03:06:49;;;;;;;8.50;4.40;;;26.90;74.00;;;;;;1892637;75;21518;-80
2022/04/05 03:09:21;;;;;;;7.03;4.78;;;27.00;73.50;;;;;;1895109;75;21207;-80
2022/04/05 03:11:55;;;;;;;7.40;4.35;;;27.10;73.10;;;;;;1896593;75;21128;-79
2022/04/05 03:14:27;;;;;;;8.88;3.83;;;27.20;73.00;;;;;;1847057;77;21217;-80
2022/04/05 03:16:58;;;;;;;5.60;3.62;;;27.30;72.60;;;;;;1885271;75;21086;-80
2022/04/05 03:19:29;;;;;;;7.17;3.40;;;27.40;73.70;;;;;;1894670;75;21063;-80
2022/04/05 03:22:00;;;;;;;6.10;3.60;;;27.50;71.40;;;;;;1883720;75;21885;-81
2022/04/05 03:24:31;;;;;;;5.42;3.10;;;27.60;70.20;;;;;;1844637;77;21124;-81
2022/04/05 03:27:03;;;;;;;6.90;3.25;;;27.70;70.40;;;;;;1892785;75;21188;-82
2022/04/05 03:29:34;;;;;;;9.20;3.35;;;27.80;70.40;;;;;;1890563;75;21121;-80
2022/04/05 03:32:08;;;;;;;7.62;3.00;;;;;;;;;;1888466;75;21191;-80
2022/04/05 03:34:40;;;;;;;4.72;3.47;;;;;;;;;;1893039;75;21644;-79
2022/04/05 03:37:10;;;;;;;5.78;2.65;;;28.30;99.90;;;;;;1896308;75;21136;-81
2022/04/05 03:39:41;;;;;;;4.85;2.80;;;28.30;68.10;;;;;;1892390;75;21113;-79
2022/04/05 03:42:12;;;;;;;4.00;2.90;;;28.40;67.60;;;;;;1892910;75;21187;-80
2022/04/05 03:44:43;;;;;;;6.67;3.33;;;28.50;66.50;;;;;;1843916;77;21241;-80
2022/04/05 03:47:13;;;;;;;4.20;3.15;;;28.50;66.70;;;;;;1885615;75;21206;-80
2022/04/05 03:49:44;;;;;;;5.12;3.65;;;28.60;66.10;;;;;;1888190;75;21687;-80
2022/04/05 03:52:15;;;;;;;6.58;3.02;;;28.60;65.70;;;;;;1891425;75;21137;-81
2022/04/05 03:54:50;;;;;;;5.10;3.15;;;28.80;65.20;;;;;;1898845;75;21074;-80
2022/04/05 03:57:20;;;;;;;8.18;2.70;;;28.80;65.60;;;;;;1910714;75;21057;-79
2022/04/05 03:59:51;;;;;;;5.10;2.70;;;28.90;64.50;;;;;;1910693;75;21053;-79
2022/04/05 04:02:22;;;;;;;4.92;3.05;;;29.00;63.40;;;;;;1880414;74;21173;-80
2022/04/05 04:04:54;;;;;;;4.25;2.92;;;29.10;62.90;;;;;;1859520;76;21137;-80
2022/04/05 04:07:25;;;;;;;4.45;2.90;;;29.20;62.30;;;;;;1865707;75;21129;-81
2022/04/05 04:09:55;;;;;;;7.53;2.92;;;29.20;62.10;;;;;;1897826;75;21211;-81
2022/04/05 04:12:26;;;;;;;4.28;2.87;;;29.20;61.80;;;;;;1832351;78;21250;-79
2022/04/05 04:14:57;;;;;;;5.20;3.08;;;29.20;61.60;;;;;;1819133;78;21539;-80
2022/04/05 04:17:29;;;;;;;6.67;3.12;;;29.20;62.50;;;;;;1810528;79;21523;-80
2022/04/05 04:20:01;;;;;;;7.90;3.37;;;29.30;61.60;;;;;;1799405;78;21087;-80
2022/04/05 04:22:32;;;;;;;4.37;2.92;;;29.40;62.30;;;;;;1815382;78;21324;-80
2022/04/05 04:25:06;;;;;;;4.78;3.00;;;29.40;60.80;;;;;;1804412;78;21611;-81
2022/04/05 04:27:37;;;;;;;8.85;3.27;;;;;;;;;;1813339;78;21618;-79
2022/04/05 04:30:08;;;;;;;5.05;3.22;;;29.50;84.40;;;;;;1826194;78;21608;-81
2022/04/05 04:32:39;;;;;;;6.20;3.52;;;29.70;73.40;;;;;;1806426;79;21060;-80
2022/04/05 04:35:13;;;;;;;4.53;3.42;;;29.70;71.20;;;;;;1801503;78;21074;-80
2022/04/05 04:37:44;;;;;;;5.42;3.15;;;29.90;75.00;;;;;;1846304;77;21161;-80
2022/04/05 04:40:19;;;;;;;4.45;3.25;;;30.00;82.90;;;;;;1823885;78;21529;-79
2022/04/05 04:42:50;;;;;;;5.62;3.35;;;30.10;71.10;;;;;;1800417;78;21119;-80
2022/04/05 04:45:26;;;;;;;5.75;3.27;;;30.10;73.40;;;;;;1801803;78;21175;-80
2022/04/05 04:47:54;;;;;;;6.90;3.10;;;30.00;87.80;;;;;;1803809;78;21073;-80
2022/04/05 04:50:25;;;;;;;5.67;2.98;;;30.10;75.50;;;;;;1824707;78;21112;-80
2022/04/05 04:52:56;;;;;;;6.15;3.33;;;30.10;72.10;;;;;;1823828;78;21659;-80
2022/04/05 04:55:28;;;;;;;6.58;3.15;;;30.20;93.10;;;;;;1806209;78;21156;-80
2022/04/05 04:58:02;;;;;;;5.25;2.87;;;30.30;85.20;;;;;;1852667;77;21089;-80
2022/04/05 05:00:33;;;;;;;8.23;3.70;;;30.40;92.60;;;;;;1840067;77;21064;-80
2022/04/05 05:03:04;;;;;;;5.72;3.60;;;30.40;80.60;;;;;;1832023;78;21210;-80
2022/04/05 05:05:37;;;;;;;5.35;3.27;;;30.40;74.30;;;;;;1784845;79;21136;-80
2022/04/05 05:08:08;;;;;;;5.65;3.15;;;30.50;67.70;;;;;;1829792;78;21270;-80
2022/04/05 05:10:39;;;;;;;7.87;3.87;;;30.50;61.00;;;;;;1824750;78;21151;-81
2022/04/05 05:13:11;;;;;;;5.97;3.12;;;30.40;59.90;;;;;;1823601;78;21173;-80
2022/04/05 05:15:42;;;;;;;4.60;3.42;;;30.50;59.60;;;;;;1812972;79;21131;-80
2022/04/05 05:18:13;;;;;;;4.92;3.60;;;30.50;59.10;;;;;;1819635;77;21605;-80
2022/04/05 05:20:44;;;;;;;5.78;3.67;;;30.60;59.10;;;;;;1858588;77;21090;-81
2022/04/05 05:23:15;;;;;;;6.25;4.65;;;30.70;60.70;;;;;;1813483;79;21158;-80
2022/04/05 05:25:47;;;;;;;5.67;3.77;;;30.80;69.00;;;;;;1827446;78;21216;-80
2022/04/05 05:28:18;;;;;;;7.05;3.70;;;30.80;74.10;;;;;;1838915;77;21197;-80
2022/04/05 05:30:49;;;;;;;5.60;3.77;;;30.80;76.90;;;;;;1847028;75;21080;-80
2022/04/05 05:33:21;;;;;;;5.65;3.83;;;30.60;76.90;;;;;;1899042;75;21217;-80
2022/04/05 05:35:52;;;;;;;6.03;3.42;;;30.70;75.80;;;;;;1910960;75;21521;-78
2022/04/05 05:38:23;;;;;;;6.60;3.45;;;30.70;69.70;;;;;;1865433;75;21146;-80
2022/04/05 05:40:54;;;;;;;5.35;4.05;;;30.80;68.80;;;;;;1894770;75;21086;-80
2022/04/05 05:43:27;;;;;;;4.97;4.17;;;30.70;70.10;;;;;;1905391;75;21235;-79
2022/04/05 05:45:58;;;;;;;10.40;4.92;;;30.90;74.40;;;;;;1864473;75;21605;-80
2022/04/05 05:48:29;;;;;;;6.10;3.95;;;30.80;78.00;;;;;;1868249;75;21216;-80
2022/04/05 05:51:02;;;;;;;7.05;4.37;;;30.90;61.60;;;;;;1896891;75;21090;-80
2022/04/05 05:53:36;;;;;;;7.12;4.28;;;30.90;61.10;;;;;;1901120;75;21610;-80
2022/04/05 05:56:07;;;;;;;8.13;4.47;;;31.00;61.40;;;;;;1870402;75;21131;-80
2022/04/05 05:58:38;;;;;;;13.45;8.30;;;31.00;62.30;;;;;;1834624;77;21096;-80
2022/04/05 06:01:09;;;;;;;6.42;3.72;;;31.10;63.10;;;;;;1842607;77;21546;-80
2022/04/05 06:03:40;;;;;;;7.17;4.78;;;31.10;64.40;;;;;;1801971;77;21177;-80
2022/04/05 06:06:14;;;;;;;6.55;4.40;;;31.20;64.40;;;;;;1819780;78;21139;-79
2022/04/05 06:08:45;;;;;;;7.60;3.83;;;31.30;65.20;;;;;;1812992;78;21149;-81
2022/04/05 06:11:16;;;;;;;6.83;4.35;;;31.30;65.50;;;;;;1829171;78;21583;-81
2022/04/05 06:13:48;;;;;;;7.05;4.40;;;31.40;65.50;;;;;;1855869;77;21192;-80
2022/04/05 06:16:20;;;;;;;5.85;4.55;;;31.30;65.20;;;;;;1817162;77;21513;-80
2022/04/05 06:18:51;;;;;;;6.55;4.20;;;31.30;65.80;;;;;;1832760;77;21118;-80
2022/04/05 06:21:22;;;;;;;5.20;4.10;;;31.20;64.60;;;;;;1824998;77;21223;-80
2022/04/05 06:23:53;;;;;;;6.87;4.95;;;31.20;65.60;;;;;;1853559;75;21063;-80
2022/04/05 06:26:24;;;;;;;7.22;4.05;;;31.10;65.60;;;;;;1861991;75;21067;-80
2022/04/05 06:28:56;;;;;;;7.12;4.37;;;31.10;66.10;;;;;;1856876;75;21085;-80
2022/04/05 06:31:27;;;;;;;5.92;4.20;;;31.20;66.00;;;;;;1898986;75;21639;-80
2022/04/05 06:34:02;;;;;;;5.72;3.92;;;31.20;66.50;;;;;;1897710;75;21090;-80
2022/04/05 06:36:31;;;;;;;5.80;4.20;;;31.20;68.10;;;;;;1903473;75;21065;-80
2022/04/05 06:39:03;;;;;;;7.00;4.37;;;31.30;69.90;;;;;;1817951;78;21073;-80
2022/04/05 06:41:33;;;;;;;5.80;4.42;;;31.40;67.40;;;;;;1827492;78;21114;-79
2022/04/05 06:44:07;;;;;;;6.72;4.20;;;31.50;68.40;;;;;;1800790;79;21143;-80
2022/04/05 06:46:38;;;;;;;6.65;4.33;;;31.30;67.60;;;;;;1787066;78;21170;-80
2022/04/05 06:49:09;;;;;;;6.95;4.33;;;31.30;66.90;;;;;;1804204;78;21206;-80
2022/04/05 06:51:40;;;;;;;6.45;4.70;;;31.30;67.50;;;;;;1819028;78;21108;-79
2022/04/05 06:54:10;;;;;;;7.22;4.75;;;31.30;67.40;;;;;;1817593;78;21588;-80
2022/04/05 06:56:41;;;;;;;8.58;4.92;;;31.20;67.60;;;;;;1812458;78;21111;-79
2022/04/05 06:59:12;;;;;;;7.62;5.60;;;31.20;67.40;;;;;;1824146;78;21110;-80
2022/04/05 07:01:48;;;;;;;6.17;4.25;;;31.10;68.00;;;;;;1822126;77;21142;-81
2022/04/05 07:04:19;;;;;;;7.70;4.47;;;31.10;67.70;;;;;;1843860;76;21576;-80
2022/04/05 07:06:49;;;;;;;6.58;4.42;;;31.00;67.80;;;;;;1904253;75;21521;-80
2022/04/05 07:09:22;;;;;;;5.78;4.05;;;31.00;67.80;;;;;;1911788;75;21186;-80
2022/04/05 07:11:52;;;;;;;4.92;4.10;;;31.00;69.10;;;;;;1921205;75;21535;-80
2022/04/05 07:14:23;;;;;;;6.37;4.50;;;31.00;69.40;;;;;;1812184;78;21132;-80
2022/04/05 07:16:54;;;;;;;7.45;4.08;;;30.90;69.00;;;;;;1873547;76;21105;-80
2022/04/05 07:19:26;;;;;;;5.33;3.65;;;30.90;70.70;;;;;;1904237;75;21501;-80
2022/04/05 07:21:56;;;;;;;6.58;4.33;;;30.90;68.90;;;;;;1921342;75;21077;-79
2022/04/05 07:24:28;;;;;;;5.70;4.58;;;30.90;69.50;;;;;;1903067;74;21189;-80
2022/04/05 07:26:59;;;;;;;7.40;4.03;;;31.00;69.20;;;;;;1924924;73;21084;-81
2022/04/05 07:29:30;;;;;;;5.78;3.90;;;30.90;68.80;;;;;;1911548;75;21083;-81
2022/04/05 07:32:01;;;;;;;6.05;4.20;;;30.90;68.30;;;;;;1901151;74;21226;-79
2022/04/05 07:34:35;;;;;;;5.85;3.58;;;31.00;67.70;;;;;;1906898;74;21134;-80
2022/04/05 07:37:09;;;;;;;6.55;3.62;;;30.80;67.20;;;;;;1893746;75;21066;-79
2022/04/05 07:39:40;;;;;;;5.50;3.80;;;31.00;67.40;;;;;;1857557;76;21197;-81
2022/04/05 07:42:11;;;;;;;6.90;3.52;;;31.00;67.30;;;;;;1913984;73;21161;-81
2022/04/05 07:44:42;;;;;;;7.10;3.90;;;30.90;67.90;;;;;;1915383;75;21500;-81
2022/04/05 07:47:12;;;;;;;5.35;3.67;;;30.90;66.70;;;;;;1899566;75;21035;-80
2022/04/05 07:49:43;;;;;;;7.30;3.85;;;31.00;67.20;;;;;;1844204;78;21116;-80
2022/04/05 07:52:17;;;;;;;7.05;4.22;;;30.90;68.00;;;;;;1918833;75;21529;-79
2022/04/05 07:54:48;;;;;;;7.53;3.85;;;31.00;68.40;;;;;;1826761;78;21217;-80
2022/04/05 07:57:20;;;;;;;7.15;3.92;;;30.90;67.80;;;;;;1824297;79;21114;-80
2022/04/05 07:59:50;;;;;;;5.10;3.62;;;31.10;68.00;;;;;;1862618;77;21207;-80
2022/04/05 08:02:21;;;;;;;6.95;3.30;;;31.00;67.40;;;;;;1827932;76;21182;-81
2022/04/05 08:04:53;;;;;;;3.80;3.10;;;31.00;68.00;;;;;;1813047;77;21134;-81
2022/04/05 08:07:24;;;;;;;5.62;2.72;;;31.00;67.50;;;;;;1854240;77;21091;-81
2022/04/05 08:09:56;;;;;;;4.58;3.30;;;31.00;67.20;;;;;;1884995;75;21090;-81
2022/04/05 08:12:29;;;;;;;6.58;2.98;;;31.00;67.30;;;;;;1907540;75;21583;-81
2022/04/05 08:14:59;;;;;;;6.58;3.22;;;31.00;67.30;;;;;;1884172;75;21096;-81
2022/04/05 08:17:30;;;;;;;4.75;3.30;;;31.10;68.20;;;;;;1905977;75;21151;-81
2022/04/05 08:20:05;;;;;;;4.80;3.40;;;31.10;68.50;;;;;;1842561;78;21163;-81
2022/04/05 08:22:36;;;;;;;7.58;3.33;;;31.10;69.20;;;;;;1827842;78;21164;-82
2022/04/05 08:25:09;;;;;;;7.95;3.85;;;31.10;70.60;;;;;;1802591;79;21103;-81
2022/04/05 08:27:40;;;;;;;5.40;2.72;;;31.10;71.50;;;;;;1787699;79;21166;-80
2022/04/05 08:30:15;;;;;;;6.35;2.77;;;31.10;73.60;;;;;;1836354;78;21133;-79
2022/04/05 08:32:47;;;;;;;5.40;2.75;;;31.00;72.80;;;;;;1823411;78;21084;-79
2022/04/05 08:35:20;;;;;;;4.97;2.83;;;31.20;69.80;;;;;;1834252;77;21187;-80
2022/04/05 08:37:53;;;;;;;5.85;2.60;;;31.20;69.80;;;;;;1824110;77;21095;-81
2022/04/05 08:40:26;;;;;;;7.20;3.25;;;31.20;69.80;;;;;;1828076;77;21146;-82
2022/04/05 08:42:58;;;;;;;5.85;3.17;;;31.10;70.40;;;;;;1836245;77;21156;-82
2022/04/05 08:45:33;;;;;;;5.10;2.80;;;31.10;71.80;;;;;;1814404;77;21084;-80
2022/04/05 08:48:09;;;;;;;4.67;2.62;;;31.20;70.20;;;;;;1836867;78;21624;-79
2022/04/05 08:50:44;;;;;;;4.40;2.60;;;31.10;67.20;;;;;;1859699;77;21616;-79
2022/04/05 08:53:21;;;;;;;4.83;2.90;;;31.00;68.70;;;;;;1860240;77;21165;-80
2022/04/05 08:55:52;;;;;;;5.00;3.00;;;31.00;70.50;;;;;;1799653;79;21103;-80
2022/04/05 08:58:24;;;;;;;4.58;3.25;;;31.10;69.00;;;;;;1800972;79;21623;-80
2022/04/05 09:00:55;;;;;;;3.85;2.50;;;30.90;72.10;;;;;;1800671;78;21566;-80
2022/04/05 09:03:29;;;;;;;6.35;2.83;;;30.80;70.10;;;;;;1783880;80;21115;-79
2022/04/05 09:06:03;;;;;;;5.92;2.95;;;30.90;67.80;;;;;;1784842;79;21138;-80
2022/04/05 09:08:33;;;;;;;6.12;2.80;;;30.90;69.60;;;;;;1797646;79;21187;-81
2022/04/05 09:11:06;;;;;;;5.00;3.10;;;30.90;70.30;;;;;;1841172;77;21559;-82
2022/04/05 09:13:38;;;;;;;5.62;2.80;;;30.80;71.90;;;;;;1835153;77;21730;-81
2022/04/05 09:16:10;;;;;;;3.90;2.58;;;30.70;72.40;;;;;;1881186;76;21602;-80
2022/04/05 09:18:48;;;;;;;7.17;2.52;;;30.70;68.40;;;;;;1877566;76;21066;-80
2022/04/05 09:21:16;;;;;;;4.72;3.33;;;30.80;69.60;;;;;;1840795;77;21673;-82
2022/04/05 09:23:52;;;;;;;6.75;3.27;;;30.60;71.90;;;;;;1839631;77;21627;-81
2022/04/05 09:26:20;;;;;;;5.95;2.95;;;30.70;70.60;;;;;;1817427;79;21137;-81
2022/04/05 09:28:52;;;;;;;4.15;3.02;;;30.60;71.60;;;;;;1872781;76;21218;-79
2022/04/05 09:31:28;;;;;;;7.50;2.83;;;30.70;72.20;;;;;;1858188;76;21153;-80
2022/04/05 09:34:02;;;;;;;5.42;3.10;;;30.70;73.30;;;;;;1877675;76;21645;-79
2022/04/05 09:36:35;;;;;;;4.08;2.75;;;30.60;68.40;;;;;;1892199;76;21565;-81
2022/04/05 09:39:08;;;;;;;4.55;3.30;;;30.50;69.10;;;;;;1852291;77;21617;-81
2022/04/05 09:41:39;;;;;;;6.83;3.80;;;30.60;71.70;;;;;;1888786;76;21211;-81
2022/04/05 09:44:10;;;;;;;6.60;3.75;;;30.50;72.60;;;;;;1894019;76;21611;-80
2022/04/05 09:46:42;;;;;;;6.22;3.10;;;31.40;70.30;;;;;;1825532;77;21618;-79
2022/04/05 09:49:16;;;;;;;9.25;4.62;;;30.50;69.10;;;;;;1890426;76;21130;-79
2022/04/05 09:51:48;;;;;;;5.62;3.02;;;30.50;69.30;;;;;;1894394;76;21542;-79
2022/04/05 09:54:27;;;;;;;5.17;3.30;;;30.40;68.80;;;;;;1852641;77;21235;-79
2022/04/05 09:56:55;;;;;;;6.72;3.35;;;30.50;69.30;;;;;;1891086;76;21086;-80
2022/04/05 09:59:26;;;;;;;6.70;4.05;;;30.40;69.20;;;;;;1895787;76;21097;-79
2022/04/05 10:01:59;;;;;;;4.10;3.15;;;30.40;69.30;;;;;;1852552;77;21160;-80
2022/04/05 10:04:33;;;;;;;4.28;3.37;;;30.40;69.70;;;;;;1889361;76;21156;-79
2022/04/05 10:07:03;;;;;;;6.10;3.00;;;30.30;69.70;;;;;;1895645;75;21554;-80
2022/04/05 10:09:34;;;;;;;6.92;3.42;;;30.30;69.80;;;;;;1911726;75;21135;-81
2022/04/05 10:12:05;;;;;;;4.60;2.90;;;30.20;69.70;;;;;;1899926;75;21058;-79
2022/04/05 10:14:36;;;;;;;6.12;3.27;;;30.30;69.90;;;;;;1911494;75;21133;-80
2022/04/05 10:17:09;;;;;;;5.62;3.40;;;30.20;70.00;;;;;;1899177;75;21619;-81
2022/04/05 10:19:43;;;;;;;5.92;3.75;;;30.20;69.30;;;;;;1911375;75;21128;-80
2022/04/05 10:22:16;;;;;;;8.05;3.98;;;30.20;70.00;;;;;;1899247;75;21085;-80
2022/04/05 10:24:49;;;;;;;6.47;3.33;;;30.10;70.20;;;;;;1911429;75;21594;-81
2022/04/05 10:27:21;;;;;;;4.75;3.00;;;30.20;70.40;;;;;;1899171;75;21691;-79
2022/04/05 10:30:00;;;;;;;7.00;3.90;;;30.10;70.10;;;;;;1910866;75;21090;-79
2022/04/05 10:32:38;;;;;;;6.83;3.37;;;30.10;70.20;;;;;;1897960;75;21200;-82
2022/04/05 10:35:11;;;;;;;8.00;3.05;;;30.10;70.40;;;;;;1911373;75;21203;-80
2022/04/05 10:37:43;;;;;;;6.10;4.00;;;30.10;70.50;;;;;;1898843;74;21521;-81
2022/04/05 10:40:17;;;;;;;6.28;3.30;;;30.10;70.80;;;;;;1911430;75;21140;-80
2022/04/05 10:42:52;;;;;;;8.13;3.80;;;30.10;70.50;;;;;;1898838;75;21090;-80
2022/04/05 10:45:33;;;;;;;7.83;3.27;;;30.10;70.50;;;;;;1911296;75;21164;-80
2022/04/05 10:47:59;;;;;;;8.10;3.98;;;30.10;70.60;;;;;;1915565;73;21588;-80
2022/04/05 10:50:32;;;;;;;6.67;3.80;;;30.00;70.70;;;;;;1921958;73;21115;-79
2022/04/05 10:53:05;;;;;;;6.33;3.80;;;30.00;70.90;;;;;;1923489;73;21521;-79
2022/04/05 10:55:38;;;;;;;6.67;3.52;;;29.90;70.90;;;;;;1927940;73;21096;-80
2022/04/05 10:58:11;;;;;;;10.13;4.37;;;29.90;71.20;;;;;;1901038;74;21125;-79
2022/04/05 11:00:52;;;;;;;7.97;3.60;;;29.90;72.30;;;;;;1913102;74;21559;-78
2022/04/05 11:03:23;;;;;;;12.70;4.42;;;29.80;71.50;;;;;;1890555;74;21512;-79
2022/04/05 11:05:57;;;;;;;12.35;4.25;;;29.80;71.70;;;;;;1819082;77;21225;-79
2022/04/05 11:08:28;;;;;;;9.30;4.40;;;29.80;71.80;;;;;;1817889;77;21152;-79
2022/04/05 11:11:01;;;;;;;13.50;5.00;;;29.70;71.90;;;;;;1920422;74;21180;-80
2022/04/05 11:13:35;;;;;;;8.18;4.30;;;29.70;72.10;;;;;;1921122;74;21140;-79
2022/04/05 11:16:08;;;;;;;12.73;5.10;;;29.70;72.10;;;;;;1919934;74;21578;-79
2022/04/05 11:18:41;;;;;;;9.48;5.45;;;29.70;72.20;;;;;;1909027;74;21162;-81
2022/04/05 11:21:12;;;;;;;7.12;4.40;;;29.70;72.30;;;;;;1927957;74;21588;-79
2022/04/05 11:23:46;;;;;;;7.33;4.45;;;29.60;72.40;;;;;;1919533;74;21567;-80
2022/04/05 11:26:19;;;;;;;6.15;4.20;;;29.70;72.60;;;;;;1919143;74;21122;-79
2022/04/05 11:28:52;;;;;;;11.53;5.25;;;29.70;73.00;;;;;;1926413;74;21572;-79
2022/04/05 11:31:25;;;;;;;12.07;5.40;;;29.60;73.10;;;;;;1929688;74;21705;-80
2022/04/05 11:33:56;;;;;;;8.73;5.00;;;29.60;74.30;;;;;;1929187;74;21550;-79
2022/04/05 11:36:27;;;;;;;7.47;4.95;;;29.60;73.60;;;;;;1898146;74;21135;-80
2022/04/05 11:38:59;;;;;;;10.30;5.03;;;29.60;73.90;;;;;;1843098;77;21598;-79
2022/04/05 11:41:31;;;;;;;10.13;4.90;;;29.50;74.50;;;;;;1930404;73;21602;-80
2022/04/05 11:44:08;;;;;;;8.28;4.70;;;29.50;74.90;;;;;;1918838;73;21127;-81
2022/04/05 11:46:38;;;;;;;8.43;4.72;;;29.50;75.60;;;;;;1920444;73;22007;-79
2022/04/05 11:49:11;;;;;;;8.48;4.95;;;29.40;75.90;;;;;;1851628;77;21139;-79
2022/04/05 11:51:44;;;;;;;12.53;5.55;;;29.50;76.10;;;;;;1908853;74;21526;-79
2022/04/05 11:54:18;;;;;;;14.00;6.50;;;29.40;76.20;;;;;;1853136;77;21623;-80
2022/04/05 11:56:49;;;;;;;15.98;6.47;;;29.30;76.60;;;;;;1905290;74;21106;-79
2022/04/05 11:59:22;;;;;;;14.40;7.55;;;29.30;77.00;;;;;;1910049;74;21076;-79
2022/04/05 12:01:52;;;;;;;16.65;6.83;;;29.40;77.40;;;;;;1930237;74;21122;-78
2022/04/05 12:04:25;;;;;;;14.60;6.37;;;29.40;77.50;;;;;;1931758;74;21578;-80
2022/04/05 12:06:58;;;;;;;17.05;7.03;;;29.20;77.40;;;;;;1928850;74;21538;-81
2022/04/05 12:09:31;;;;;;;18.52;6.80;;;29.30;77.50;;;;;;1920284;74;21053;-80
2022/04/05 12:12:04;;;;;;;12.03;6.30;;;29.20;77.60;;;;;;1909709;74;21200;-80
2022/04/05 12:14:35;;;;;;;11.00;5.78;;;29.20;77.80;;;;;;1920999;74;21613;-79
2022/04/05 12:17:07;;;;;;;11.60;5.83;;;29.10;78.10;;;;;;1909698;74;21161;-79
2022/04/05 12:19:40;;;;;;;15.85;6.85;;;29.10;78.10;;;;;;1927997;74;21585;-81
2022/04/05 12:22:16;;;;;;;9.75;6.60;;;29.10;78.10;;;;;;1900600;74;21602;-78
2022/04/05 12:24:53;;;;;;;15.13;7.00;;;29.10;78.20;;;;;;1933965;74;21594;-80
2022/04/05 12:27:23;;;;;;;21.60;7.30;;;29.10;77.90;;;;;;1937375;74;21638;-79
2022/04/05 12:29:56;;;;;;;22.93;7.78;;;29.10;78.00;;;;;;1934352;74;21169;-79
2022/04/05 12:32:31;;;;;;;17.00;7.50;;;29.10;78.30;;;;;;1945972;74;21201;-79
2022/04/05 12:35:02;;;;;;;13.43;7.12;;;29.00;78.90;;;;;;1921253;74;21637;-80
2022/04/05 12:37:37;;;;;;;20.77;7.78;;;29.10;78.80;;;;;;1924792;74;21093;-79
2022/04/05 12:40:12;;;;;;;20.37;8.40;;;29.10;79.30;;;;;;1916609;74;21073;-80
2022/04/05 12:42:42;;;;;;;26.48;8.88;;;28.90;79.30;;;;;;1909124;75;21125;-80
2022/04/05 12:45:13;;;;;;;20.95;8.18;;;28.90;79.70;;;;;;1911920;75;21652;-80
2022/04/05 12:47:47;;;;;;;21.77;8.05;;;28.90;79.90;;;;;;1911877;75;21086;-79
2022/04/05 12:50:19;;;;;;;16.65;8.18;;;28.90;79.90;;;;;;1911924;75;21077;-79
2022/04/05 12:53:03;;;;;;;17.65;8.58;;;29.00;80.40;;;;;;1912004;75;21093;-80
2022/04/05 12:55:34;;;;;;;16.25;9.25;;;28.90;80.40;;;;;;1911272;75;21561;-79
2022/04/05 12:58:07;;;;;;;21.07;9.73;;;28.90;80.90;;;;;;1912690;75;21133;-79
2022/04/05 13:00:48;;;;;;;19.27;10.43;;;28.80;80.70;;;;;;1907653;74;21576;-80
2022/04/05 13:03:22;;;;;;;15.72;9.10;;;28.90;80.90;;;;;;1908527;75;21143;-78
2022/04/05 13:08:33;;;;;;;18.92;9.93;;;28.80;81.60;;;;;;1923271;74;21092;-79
2022/04/05 13:11:11;;;;;;;21.27;10.65;;;28.90;81.80;;;;;;1917891;75;21143;-80
2022/04/05 13:13:42;;;;;;;14.63;9.10;;;28.80;81.70;;;;;;1917444;74;21217;-79